Braham, MN (55006)

8:13 PM CST on December 28, 2014 (GMT -0600)
Torgs on Belle Isle | Change Station
CLOSE
Current Station
Personal Weather Station
Location: Rush City, MN
Elevation: 932 ft
Nearby Weather Stations

Elev 932 ft 45.70 °N, 93.06 °W | Updated 44 seconds ago

Clear
Clear
9.9 °F
Feels Like 10 °F
N
2.0
Wind Variable Wind from North
Gusts 6.0 mph

Today
High -- | Low -- °F
--% Chance of Precip.
Yesterday
High -- | Low -- °F
Precip. -- in
7:53 AM 4:35 PM
First Quarter, 53% visible
Pressure 30.30 in
Visibility 10.0 miles
Clouds Clear
Windchill 10 °F
Dew Point 4 °F
Humidity 75%
Rainfall 0.00 in
Snow Depth Not available.
UV 0 out of 12
Pollen .10 out of 12
Air Quality Not available.
Flu Activity Not available.
METAR KROS 290155Z AUTO 01007KT 10SM CLR M13/M18 A3030 RMK AO2 T11291180

More Conditions Fewer Conditions

Pressure 30.30 in
Visibility 10.0 miles
Clouds Clear
Windchill 10 °F
Dew Point 4 °F
Humidity 75%
Rainfall 0.00 in
Snow Depth Not available.
UV 0 out of 12
Pollen .10 out of 12
Air Quality Not available.
Flu Activity Not available.
METAR KROS 290155Z AUTO 01007KT 10SM CLR M13/M18 A3030 RMK AO2 T11291180

More Conditions Fewer Conditions

10-Day Weather Forecast

Almanac

Astronomy

Dec. 28, 2014 Rise Set
Actual Time
Civil Twilight
Nautical Twilight
Astronomical Twilight
Moon
Length of Visible Light
Length of Day
Tomorrow will be .
, % of the Moon is Illuminated

Today's Extremes

State Highs State Lows

Community

WunderPhotos

Upload Photos

1,781,498 photos uploaded!

WunderBlogs® & News

Nearby

Air Quality

  Air Quality AQ Index Pollutant
Not available.

Snow Depth

Station Depth Elevation

Earthquake Activity

City Distance Mag. Time & Date
Minimum magnitude displayed is 2.5.

Coastal Water Temperatures

Place Temperature

Nearby Weather Stations